sensor_id;sensor_type;location;lat;lon;timestamp;pressure;altitude;pressure_sealevel;temperature;humidity
33781;BME280;20097;50.832;19.100;2023-05-08T00:00:05;99340.34;;;3.35;100.00
33781;BME280;20097;50.832;19.100;2023-05-08T00:05:11;99341.91;;;3.25;100.00
33781;BME280;20097;50.832;19.100;2023-05-08T00:10:15;99346.88;;;3.28;100.00
33781;BME280;20097;50.832;19.100;2023-05-08T00:15:19;99345.31;;;3.26;100.00
33781;BME280;20097;50.832;19.100;2023-05-08T00:20:24;99346.03;;;3.15;100.00
33781;BME280;20097;50.832;19.100;2023-05-08T00:25:28;99338.50;;;3.12;100.00
33781;BME280;20097;50.832;19.100;2023-05-08T00:30:34;99332.72;;;3.09;100.00
33781;BME280;20097;50.832;19.100;2023-05-08T00:35:39;99343.31;;;3.04;100.00
33781;BME280;20097;50.832;19.100;2023-05-08T00:40:44;99337.66;;;2.99;100.00
33781;BME280;20097;50.832;19.100;2023-05-08T00:45:48;99347.88;;;3.01;100.00
33781;BME280;20097;50.832;19.100;2023-05-08T00:50:54;99353.31;;;2.96;100.00
33781;BME280;20097;50.832;19.100;2023-05-08T00:55:58;99349.72;;;2.99;100.00
33781;BME280;20097;50.832;19.100;2023-05-08T01:01:03;99360.97;;;2.98;100.00
33781;BME280;20097;50.832;19.100;2023-05-08T01:06:09;99366.19;;;2.96;100.00
33781;BME280;20097;50.832;19.100;2023-05-08T01:11:16;99366.59;;;2.90;100.00
33781;BME280;20097;50.832;19.100;2023-05-08T01:16:28;99365.50;;;2.94;100.00
33781;BME280;20097;50.832;19.100;2023-05-08T01:21:41;99384.56;;;2.92;100.00
33781;BME280;20097;50.832;19.100;2023-05-08T01:32:38;99393.34;;;3.02;100.00
33781;BME280;20097;50.832;19.100;2023-05-08T01:37:49;99392.53;;;3.01;100.00
33781;BME280;20097;50.832;19.100;2023-05-08T01:43:00;99395.41;;;3.09;100.00
33781;BME280;20097;50.832;19.100;2023-05-08T01:48:10;99389.66;;;3.06;100.00
33781;BME280;20097;50.832;19.100;2023-05-08T01:53:20;99390.66;;;2.91;100.00
33781;BME280;20097;50.832;19.100;2023-05-08T01:58:25;99394.97;;;2.90;100.00
33781;BME280;20097;50.832;19.100;2023-05-08T02:03:32;99386.91;;;2.82;100.00
33781;BME280;20097;50.832;19.100;2023-05-08T02:08:37;99393.91;;;2.80;100.00
33781;BME280;20097;50.832;19.100;2023-05-08T02:13:43;99400.19;;;2.76;100.00
33781;BME280;20097;50.832;19.100;2023-05-08T02:18:50;99396.84;;;2.61;100.00
33781;BME280;20097;50.832;19.100;2023-05-08T02:23:55;99395.13;;;2.48;100.00
33781;BME280;20097;50.832;19.100;2023-05-08T02:29:00;99393.84;;;2.41;100.00
33781;BME280;20097;50.832;19.100;2023-05-08T02:34:06;99401.63;;;2.27;100.00
33781;BME280;20097;50.832;19.100;2023-05-08T02:39:13;99395.38;;;2.17;100.00
33781;BME280;20097;50.832;19.100;2023-05-08T02:44:18;99401.66;;;2.13;100.00
33781;BME280;20097;50.832;19.100;2023-05-08T02:49:28;99404.59;;;2.07;100.00
33781;BME280;20097;50.832;19.100;2023-05-08T02:54:37;99402.56;;;2.12;100.00
33781;BME280;20097;50.832;19.100;2023-05-08T02:59:53;99403.69;;;2.08;100.00
33781;BME280;20097;50.832;19.100;2023-05-08T03:05:05;99405.72;;;2.03;100.00
33781;BME280;20097;50.832;19.100;2023-05-08T03:10:13;99400.38;;;2.06;100.00
33781;BME280;20097;50.832;19.100;2023-05-08T03:15:22;99396.31;;;2.02;100.00
33781;BME280;20097;50.832;19.100;2023-05-08T03:20:31;99405.72;;;2.03;100.00
33781;BME280;20097;50.832;19.100;2023-05-08T03:25:37;99405.72;;;2.03;100.00
33781;BME280;20097;50.832;19.100;2023-05-08T03:30:43;99408.09;;;1.92;100.00
33781;BME280;20097;50.832;19.100;2023-05-08T03:35:51;99412.44;;;1.91;100.00
33781;BME280;20097;50.832;19.100;2023-05-08T03:40:57;99407.38;;;1.90;100.00
33781;BME280;20097;50.832;19.100;2023-05-08T03:46:03;99417.84;;;2.01;100.00
33781;BME280;20097;50.832;19.100;2023-05-08T03:51:09;99422.78;;;2.04;100.00
33781;BME280;20097;50.832;19.100;2023-05-08T03:56:14;99425.09;;;2.08;100.00
33781;BME280;20097;50.832;19.100;2023-05-08T04:01:21;99427.31;;;2.00;100.00
33781;BME280;20097;50.832;19.100;2023-05-08T04:06:30;99435.56;;;2.05;100.00
33781;BME280;20097;50.832;19.100;2023-05-08T04:11:59;99435.69;;;2.18;100.00
33781;BME280;20097;50.832;19.100;2023-05-08T04:17:06;99438.41;;;2.29;100.00
33781;BME280;20097;50.832;19.100;2023-05-08T04:22:14;99452.91;;;2.58;100.00
33781;BME280;20097;50.832;19.100;2023-05-08T04:27:21;99460.78;;;2.69;100.00
33781;BME280;20097;50.832;19.100;2023-05-08T04:32:27;99452.94;;;2.85;100.00
33781;BME280;20097;50.832;19.100;2023-05-08T04:37:34;99466.88;;;2.95;100.00
33781;BME280;20097;50.832;19.100;2023-05-08T04:42:38;99473.84;;;3.07;100.00
33781;BME280;20097;50.832;19.100;2023-05-08T04:47:45;99481.13;;;3.27;100.00
33781;BME280;20097;50.832;19.100;2023-05-08T04:52:51;99488.88;;;3.27;100.00
33781;BME280;20097;50.832;19.100;2023-05-08T04:57:56;99506.09;;;3.26;100.00
33781;BME280;20097;50.832;19.100;2023-05-08T05:03:00;99502.91;;;3.35;100.00
33781;BME280;20097;50.832;19.100;2023-05-08T05:08:06;99511.28;;;3.39;100.00
33781;BME280;20097;50.832;19.100;2023-05-08T05:13:11;99509.50;;;3.66;100.00
33781;BME280;20097;50.832;19.100;2023-05-08T05:18:15;99524.91;;;3.92;100.00
33781;BME280;20097;50.832;19.100;2023-05-08T05:23:21;99525.22;;;4.00;100.00
33781;BME280;20097;50.832;19.100;2023-05-08T05:28:25;99525.44;;;4.10;100.00
33781;BME280;20097;50.832;19.100;2023-05-08T05:33:30;99526.16;;;4.37;100.00
33781;BME280;20097;50.832;19.100;2023-05-08T05:38:36;99522.94;;;4.46;100.00
33781;BME280;20097;50.832;19.100;2023-05-08T05:43:40;99521.69;;;4.64;100.00
33781;BME280;20097;50.832;19.100;2023-05-08T05:48:44;99547.66;;;4.63;100.00
33781;BME280;20097;50.832;19.100;2023-05-08T05:53:50;99549.78;;;4.69;100.00
33781;BME280;20097;50.832;19.100;2023-05-08T05:58:54;99551.88;;;4.64;100.00
33781;BME280;20097;50.832;19.100;2023-05-08T06:04:00;99555.53;;;4.97;100.00
33781;BME280;20097;50.832;19.100;2023-05-08T06:09:06;99542.94;;;5.40;100.00
33781;BME280;20097;50.832;19.100;2023-05-08T06:14:10;99556.44;;;5.32;100.00
33781;BME280;20097;50.832;19.100;2023-05-08T06:19:14;99557.97;;;5.58;100.00
33781;BME280;20097;50.832;19.100;2023-05-08T06:24:20;99563.19;;;5.70;100.00
33781;BME280;20097;50.832;19.100;2023-05-08T06:29:24;99560.63;;;5.93;100.00
33781;BME280;20097;50.832;19.100;2023-05-08T06:34:28;99566.09;;;6.34;100.00
33781;BME280;20097;50.832;19.100;2023-05-08T06:39:34;99569.28;;;6.27;100.00
33781;BME280;20097;50.832;19.100;2023-05-08T06:44:38;99570.50;;;6.78;100.00
33781;BME280;20097;50.832;19.100;2023-05-08T06:49:42;99575.19;;;6.62;100.00
33781;BME280;20097;50.832;19.100;2023-05-08T06:54:48;99581.19;;;7.07;100.00
33781;BME280;20097;50.832;19.100;2023-05-08T06:59:52;99574.31;;;7.28;100.00
33781;BME280;20097;50.832;19.100;2023-05-08T07:04:56;99585.38;;;7.41;100.00
33781;BME280;20097;50.832;19.100;2023-05-08T07:10:03;99590.28;;;7.55;100.00
33781;BME280;20097;50.832;19.100;2023-05-08T07:15:10;99584.19;;;7.76;100.00
33781;BME280;20097;50.832;19.100;2023-05-08T07:20:27;99600.28;;;8.22;96.78
33781;BME280;20097;50.832;19.100;2023-05-08T07:25:32;99587.97;;;8.04;95.40
33781;BME280;20097;50.832;19.100;2023-05-08T07:30:36;99586.78;;;7.76;96.19
33781;BME280;20097;50.832;19.100;2023-05-08T07:35:40;99585.75;;;7.99;93.33
33781;BME280;20097;50.832;19.100;2023-05-08T07:40:45;99587.91;;;8.15;94.13
33781;BME280;20097;50.832;19.100;2023-05-08T07:45:50;99586.31;;;8.65;96.92
33781;BME280;20097;50.832;19.100;2023-05-08T07:50:54;99585.66;;;8.72;94.05
33781;BME280;20097;50.832;19.100;2023-05-08T07:56:00;99584.88;;;8.81;87.92
33781;BME280;20097;50.832;19.100;2023-05-08T08:01:04;99580.03;;;9.07;87.51
33781;BME280;20097;50.832;19.100;2023-05-08T08:06:08;99591.03;;;9.20;84.34
33781;BME280;20097;50.832;19.100;2023-05-08T08:11:14;99581.75;;;9.27;83.30
33781;BME280;20097;50.832;19.100;2023-05-08T08:16:18;99590.44;;;8.97;83.90
33781;BME280;20097;50.832;19.100;2023-05-08T08:21:22;99592.72;;;8.91;80.73
33781;BME280;20097;50.832;19.100;2023-05-08T08:26:28;99584.66;;;8.94;78.92
33781;BME280;20097;50.832;19.100;2023-05-08T08:31:32;99581.34;;;8.92;79.93
33781;BME280;20097;50.832;19.100;2023-05-08T08:36:36;99584.81;;;9.02;79.10
33781;BME280;20097;50.832;19.100;2023-05-08T08:41:41;99594.00;;;9.84;78.79
33781;BME280;20097;50.832;19.100;2023-05-08T08:46:50;99586.56;;;10.36;72.78
33781;BME280;20097;50.832;19.100;2023-05-08T08:51:57;99584.53;;;10.30;70.96
33781;BME280;20097;50.832;19.100;2023-05-08T08:57:04;99593.06;;;10.23;71.35
33781;BME280;20097;50.832;19.100;2023-05-08T09:02:11;99581.25;;;10.00;71.54
33781;BME280;20097;50.832;19.100;2023-05-08T09:07:19;99602.97;;;10.10;70.82
33781;BME280;20097;50.832;19.100;2023-05-08T09:12:26;99597.09;;;10.54;69.12
33781;BME280;20097;50.832;19.100;2023-05-08T09:17:30;99596.13;;;10.91;67.14
33781;BME280;20097;50.832;19.100;2023-05-08T09:22:35;99597.84;;;11.55;65.69
33781;BME280;20097;50.832;19.100;2023-05-08T09:27:40;99597.84;;;11.55;63.76
33781;BME280;20097;50.832;19.100;2023-05-08T09:32:46;99599.81;;;11.53;61.92
33781;BME280;20097;50.832;19.100;2023-05-08T09:37:51;99590.84;;;11.11;64.95
33781;BME280;20097;50.832;19.100;2023-05-08T09:43:10;99575.22;;;11.46;65.11
33781;BME280;20097;50.832;19.100;2023-05-08T09:48:15;99587.69;;;11.34;63.81
33781;BME280;20097;50.832;19.100;2023-05-08T09:53:21;99582.28;;;11.98;62.69
33781;BME280;20097;50.832;19.100;2023-05-08T09:58:38;99575.25;;;12.41;61.80
33781;BME280;20097;50.832;19.100;2023-05-08T10:03:46;99584.84;;;12.59;61.48
33781;BME280;20097;50.832;19.100;2023-05-08T10:09:05;99583.84;;;12.85;59.50
33781;BME280;20097;50.832;19.100;2023-05-08T10:14:11;99588.28;;;12.85;59.26
33781;BME280;20097;50.832;19.100;2023-05-08T10:19:17;99590.22;;;12.31;59.27
33781;BME280;20097;50.832;19.100;2023-05-08T10:24:26;99578.47;;;11.92;60.02
33781;BME280;20097;50.832;19.100;2023-05-08T10:29:36;99577.91;;;12.24;58.99
33781;BME280;20097;50.832;19.100;2023-05-08T10:34:44;99572.06;;;11.87;60.65
33781;BME280;20097;50.832;19.100;2023-05-08T10:39:49;99562.19;;;11.98;61.53
33781;BME280;20097;50.832;19.100;2023-05-08T10:44:56;99555.84;;;12.86;60.59
33781;BME280;20097;50.832;19.100;2023-05-08T10:50:03;99575.25;;;12.75;57.23
33781;BME280;20097;50.832;19.100;2023-05-08T10:55:15;99570.81;;;12.68;57.51
33781;BME280;20097;50.832;19.100;2023-05-08T11:00:23;99565.81;;;12.05;58.11
33781;BME280;20097;50.832;19.100;2023-05-08T11:05:27;99566.53;;;12.92;57.75
33781;BME280;20097;50.832;19.100;2023-05-08T11:10:31;99554.78;;;12.71;58.33
33781;BME280;20097;50.832;19.100;2023-05-08T11:15:40;99553.25;;;13.35;58.78
33781;BME280;20097;50.832;19.100;2023-05-08T11:20:54;99557.91;;;13.08;55.89
33781;BME280;20097;50.832;19.100;2023-05-08T11:26:00;99543.25;;;13.31;56.16
33781;BME280;20097;50.832;19.100;2023-05-08T11:31:06;99567.13;;;14.10;52.24
33781;BME280;20097;50.832;19.100;2023-05-08T11:36:11;99547.91;;;14.33;53.10
33781;BME280;20097;50.832;19.100;2023-05-08T11:41:19;99564.81;;;14.23;53.62
33781;BME280;20097;50.832;19.100;2023-05-08T11:46:35;99548.84;;;13.52;52.61
33781;BME280;20097;50.832;19.100;2023-05-08T11:51:41;99553.31;;;14.40;52.16
33781;BME280;20097;50.832;19.100;2023-05-08T11:56:49;99542.34;;;14.91;52.40
33781;BME280;20097;50.832;19.100;2023-05-08T12:01:54;99546.13;;;14.26;52.96
33781;BME280;20097;50.832;19.100;2023-05-08T12:07:11;99557.91;;;15.00;51.75
33781;BME280;20097;50.832;19.100;2023-05-08T12:12:15;99549.38;;;14.04;52.18
33781;BME280;20097;50.832;19.100;2023-05-08T12:17:21;99551.97;;;13.55;53.63
33781;BME280;20097;50.832;19.100;2023-05-08T12:22:25;99554.97;;;14.41;50.91
33781;BME280;20097;50.832;19.100;2023-05-08T12:27:29;99551.56;;;15.56;51.19
33781;BME280;20097;50.832;19.100;2023-05-08T12:32:35;99556.75;;;15.64;48.92
33781;BME280;20097;50.832;19.100;2023-05-08T12:37:39;99570.47;;;16.71;49.44
33781;BME280;20097;50.832;19.100;2023-05-08T12:42:44;99561.34;;;16.44;48.38
33781;BME280;20097;50.832;19.100;2023-05-08T12:47:51;99578.31;;;16.79;47.58
33781;BME280;20097;50.832;19.100;2023-05-08T12:53:00;99566.56;;;16.15;46.59
33781;BME280;20097;50.832;19.100;2023-05-08T12:58:07;99563.41;;;16.72;46.62
33781;BME280;20097;50.832;19.100;2023-05-08T13:03:23;99550.63;;;17.19;46.93
33781;BME280;20097;50.832;19.100;2023-05-08T13:08:31;99563.50;;;16.64;45.96
33781;BME280;20097;50.832;19.100;2023-05-08T13:13:36;99552.16;;;16.26;46.97
33781;BME280;20097;50.832;19.100;2023-05-08T13:18:42;99553.41;;;17.46;44.82
33781;BME280;20097;50.832;19.100;2023-05-08T13:23:46;99560.47;;;18.85;44.71
33781;BME280;20097;50.832;19.100;2023-05-08T13:28:50;99547.25;;;18.92;46.87
33781;BME280;20097;50.832;19.100;2023-05-08T13:33:59;99547.59;;;16.57;45.11
33781;BME280;20097;50.832;19.100;2023-05-08T13:39:03;99553.34;;;16.01;46.16
33781;BME280;20097;50.832;19.100;2023-05-08T13:44:08;99541.19;;;17.45;47.04
33781;BME280;20097;50.832;19.100;2023-05-08T13:49:13;99536.47;;;16.62;45.27
33781;BME280;20097;50.832;19.100;2023-05-08T13:54:17;99535.00;;;15.70;47.42
33781;BME280;20097;50.832;19.100;2023-05-08T13:59:21;99522.00;;;15.16;49.08
33781;BME280;20097;50.832;19.100;2023-05-08T14:04:27;99511.94;;;14.88;49.70
33781;BME280;20097;50.832;19.100;2023-05-08T14:09:31;99522.97;;;14.29;49.00
33781;BME280;20097;50.832;19.100;2023-05-08T14:14:35;99520.66;;;14.10;50.45
33781;BME280;20097;50.832;19.100;2023-05-08T14:19:40;99530.09;;;15.45;47.97
33781;BME280;20097;50.832;19.100;2023-05-08T14:24:44;99528.84;;;16.52;47.32
33781;BME280;20097;50.832;19.100;2023-05-08T14:29:48;99530.50;;;14.87;46.66
33781;BME280;20097;50.832;19.100;2023-05-08T14:34:56;99523.13;;;14.36;49.20
33781;BME280;20097;50.832;19.100;2023-05-08T14:40:00;99517.53;;;15.92;48.67
33781;BME280;20097;50.832;19.100;2023-05-08T14:45:06;99529.41;;;16.25;45.17
33781;BME280;20097;50.832;19.100;2023-05-08T14:50:12;99527.69;;;17.55;43.98
33781;BME280;20097;50.832;19.100;2023-05-08T14:55:16;99534.66;;;16.62;44.16
33781;BME280;20097;50.832;19.100;2023-05-08T15:00:42;99524.66;;;15.38;46.30
33781;BME280;20097;50.832;19.100;2023-05-08T15:05:47;99523.75;;;15.54;46.66
33781;BME280;20097;50.832;19.100;2023-05-08T15:10:52;99526.94;;;16.09;46.83
33781;BME280;20097;50.832;19.100;2023-05-08T15:15:56;99535.84;;;16.45;43.75
33781;BME280;20097;50.832;19.100;2023-05-08T15:21:03;99523.31;;;17.26;43.02
33781;BME280;20097;50.832;19.100;2023-05-08T15:26:07;99524.69;;;15.83;45.81
33781;BME280;20097;50.832;19.100;2023-05-08T15:31:11;99519.28;;;14.54;46.91
33781;BME280;20097;50.832;19.100;2023-05-08T15:36:17;99509.66;;;13.99;49.36
33781;BME280;20097;50.832;19.100;2023-05-08T15:41:21;99501.97;;;14.76;50.53
33781;BME280;20097;50.832;19.100;2023-05-08T15:46:25;99500.53;;;14.57;48.40
33781;BME280;20097;50.832;19.100;2023-05-08T15:51:30;99498.66;;;14.35;48.65
33781;BME280;20097;50.832;19.100;2023-05-08T15:56:35;99507.88;;;13.99;49.46
33781;BME280;20097;50.832;19.100;2023-05-08T16:01:39;99498.16;;;13.35;49.74
33781;BME280;20097;50.832;19.100;2023-05-08T16:06:45;99497.13;;;13.04;49.66
33781;BME280;20097;50.832;19.100;2023-05-08T16:11:49;99494.28;;;12.98;50.88
33781;BME280;20097;50.832;19.100;2023-05-08T16:16:53;99480.03;;;12.92;52.51
33781;BME280;20097;50.832;19.100;2023-05-08T16:21:58;99469.13;;;13.13;52.15
33781;BME280;20097;50.832;19.100;2023-05-08T16:27:02;99473.75;;;13.27;51.51
33781;BME280;20097;50.832;19.100;2023-05-08T16:32:07;99473.09;;;13.25;52.80
33781;BME280;20097;50.832;19.100;2023-05-08T16:37:12;99485.72;;;12.72;52.24
33781;BME280;20097;50.832;19.100;2023-05-08T16:42:16;99484.25;;;12.43;53.95
33781;BME280;20097;50.832;19.100;2023-05-08T16:47:20;99476.88;;;12.13;55.10
33781;BME280;20097;50.832;19.100;2023-05-08T16:52:25;99478.59;;;11.97;55.39
33781;BME280;20097;50.832;19.100;2023-05-08T16:57:30;99467.94;;;11.90;57.26
33781;BME280;20097;50.832;19.100;2023-05-08T17:02:34;99463.75;;;11.80;57.42
33781;BME280;20097;50.832;19.100;2023-05-08T17:07:40;99483.19;;;11.77;55.09
33781;BME280;20097;50.832;19.100;2023-05-08T17:12:44;99479.28;;;11.81;54.93
33781;BME280;20097;50.832;19.100;2023-05-08T17:17:48;99471.59;;;11.80;55.87
33781;BME280;20097;50.832;19.100;2023-05-08T17:22:54;99477.63;;;11.63;55.69
33781;BME280;20097;50.832;19.100;2023-05-08T17:27:59;99473.03;;;11.39;56.86
33781;BME280;20097;50.832;19.100;2023-05-08T17:33:03;99475.13;;;11.18;57.83
33781;BME280;20097;50.832;19.100;2023-05-08T17:38:09;99467.66;;;11.05;58.04
33781;BME280;20097;50.832;19.100;2023-05-08T17:43:13;99446.47;;;10.81;60.64
33781;BME280;20097;50.832;19.100;2023-05-08T17:48:17;99467.13;;;10.75;60.88
33781;BME280;20097;50.832;19.100;2023-05-08T17:53:22;99472.25;;;10.67;62.12
33781;BME280;20097;50.832;19.100;2023-05-08T17:58:26;99476.50;;;10.50;63.22
33781;BME280;20097;50.832;19.100;2023-05-08T18:03:31;99477.47;;;10.40;63.79
33781;BME280;20097;50.832;19.100;2023-05-08T18:08:36;99468.88;;;10.30;66.17
33781;BME280;20097;50.832;19.100;2023-05-08T18:13:43;99476.47;;;10.04;66.91
33781;BME280;20097;50.832;19.100;2023-05-08T18:18:48;99478.31;;;9.85;67.04
33781;BME280;20097;50.832;19.100;2023-05-08T18:23:54;99482.84;;;9.63;69.66
33781;BME280;20097;50.832;19.100;2023-05-08T18:28:58;99489.31;;;9.50;69.80
33781;BME280;20097;50.832;19.100;2023-05-08T18:34:03;99485.59;;;9.14;73.07
33781;BME280;20097;50.832;19.100;2023-05-08T18:39:08;99485.69;;;8.94;75.31
33781;BME280;20097;50.832;19.100;2023-05-08T18:44:12;99492.91;;;8.71;77.72
33781;BME280;20097;50.832;19.100;2023-05-08T18:49:17;99502.47;;;8.61;78.25
33781;BME280;20097;50.832;19.100;2023-05-08T18:54:22;99512.38;;;8.37;80.47
33781;BME280;20097;50.832;19.100;2023-05-08T18:59:28;99509.16;;;8.24;82.56
33781;BME280;20097;50.832;19.100;2023-05-08T19:04:32;99506.16;;;8.08;84.11
33781;BME280;20097;50.832;19.100;2023-05-08T19:09:38;99503.81;;;7.84;87.04
33781;BME280;20097;50.832;19.100;2023-05-08T19:14:42;99512.91;;;7.90;85.14
33781;BME280;20097;50.832;19.100;2023-05-08T19:19:46;99503.28;;;7.90;86.18
33781;BME280;20097;50.832;19.100;2023-05-08T19:24:54;99502.91;;;7.74;92.78
33781;BME280;20097;50.832;19.100;2023-05-08T19:29:58;99506.75;;;7.70;91.27
33781;BME280;20097;50.832;19.100;2023-05-08T19:35:03;99511.47;;;7.45;100.00
33781;BME280;20097;50.832;19.100;2023-05-08T19:40:10;99499.91;;;7.38;94.08
33781;BME280;20097;50.832;19.100;2023-05-08T19:45:14;99502.06;;;7.33;95.64
33781;BME280;20097;50.832;19.100;2023-05-08T19:50:19;99502.16;;;7.11;100.00
33781;BME280;20097;50.832;19.100;2023-05-08T19:55:24;99492.72;;;6.98;100.00
33781;BME280;20097;50.832;19.100;2023-05-08T20:00:29;99489.59;;;6.62;100.00
33781;BME280;20097;50.832;19.100;2023-05-08T20:05:33;99486.88;;;6.52;100.00
33781;BME280;20097;50.832;19.100;2023-05-08T20:10:38;99485.75;;;6.45;100.00
33781;BME280;20097;50.832;19.100;2023-05-08T20:15:42;99486.78;;;6.65;100.00
33781;BME280;20097;50.832;19.100;2023-05-08T20:20:47;99492.06;;;6.74;100.00
33781;BME280;20097;50.832;19.100;2023-05-08T20:25:52;99487.84;;;6.51;100.00
33781;BME280;20097;50.832;19.100;2023-05-08T20:30:56;99478.28;;;6.41;100.00
33781;BME280;20097;50.832;19.100;2023-05-08T20:36:01;99474.31;;;6.26;100.00
33781;BME280;20097;50.832;19.100;2023-05-08T20:41:06;99480.06;;;6.18;100.00
33781;BME280;20097;50.832;19.100;2023-05-08T20:46:10;99482.88;;;6.15;100.00
33781;BME280;20097;50.832;19.100;2023-05-08T20:51:14;99482.88;;;6.04;100.00
33781;BME280;20097;50.832;19.100;2023-05-08T20:56:19;99474.88;;;6.07;100.00
33781;BME280;20097;50.832;19.100;2023-05-08T21:01:24;99470.75;;;6.05;100.00
33781;BME280;20097;50.832;19.100;2023-05-08T21:06:28;99466.50;;;5.93;100.00
33781;BME280;20097;50.832;19.100;2023-05-08T21:11:33;99467.31;;;5.93;100.00
33781;BME280;20097;50.832;19.100;2023-05-08T21:16:38;99465.78;;;5.91;100.00
33781;BME280;20097;50.832;19.100;2023-05-08T21:21:42;99461.66;;;5.88;100.00
33781;BME280;20097;50.832;19.100;2023-05-08T21:26:48;99456.59;;;5.98;100.00
33781;BME280;20097;50.832;19.100;2023-05-08T21:31:52;99465.69;;;6.03;100.00
33781;BME280;20097;50.832;19.100;2023-05-08T21:36:56;99459.31;;;6.07;100.00
33781;BME280;20097;50.832;19.100;2023-05-08T21:42:02;99467.09;;;6.07;100.00
33781;BME280;20097;50.832;19.100;2023-05-08T21:47:06;99463.78;;;6.05;100.00
33781;BME280;20097;50.832;19.100;2023-05-08T21:52:10;99462.03;;;5.95;100.00
33781;BME280;20097;50.832;19.100;2023-05-08T21:57:15;99458.09;;;5.78;100.00
33781;BME280;20097;50.832;19.100;2023-05-08T22:02:20;99456.09;;;5.82;100.00
33781;BME280;20097;50.832;19.100;2023-05-08T22:07:24;99452.06;;;5.78;100.00
33781;BME280;20097;50.832;19.100;2023-05-08T22:12:29;99446.19;;;5.76;100.00
33781;BME280;20097;50.832;19.100;2023-05-08T22:17:33;99443.69;;;5.74;100.00
33781;BME280;20097;50.832;19.100;2023-05-08T22:22:37;99442.88;;;5.74;100.00
33781;BME280;20097;50.832;19.100;2023-05-08T22:27:43;99438.31;;;5.77;100.00
33781;BME280;20097;50.832;19.100;2023-05-08T22:32:52;99435.72;;;5.77;100.00
33781;BME280;20097;50.832;19.100;2023-05-08T22:37:57;99425.91;;;5.70;100.00
33781;BME280;20097;50.832;19.100;2023-05-08T22:43:02;99428.84;;;5.65;100.00
33781;BME280;20097;50.832;19.100;2023-05-08T22:48:07;99423.53;;;5.55;100.00
33781;BME280;20097;50.832;19.100;2023-05-08T22:53:12;99425.19;;;5.56;100.00
33781;BME280;20097;50.832;19.100;2023-05-08T22:58:17;99424.56;;;5.53;100.00
33781;BME280;20097;50.832;19.100;2023-05-08T23:03:21;99422.47;;;5.47;100.00
33781;BME280;20097;50.832;19.100;2023-05-08T23:08:26;99425.03;;;5.47;100.00
33781;BME280;20097;50.832;19.100;2023-05-08T23:13:31;99423.41;;;5.46;100.00
33781;BME280;20097;50.832;19.100;2023-05-08T23:18:36;99421.25;;;5.40;100.00
33781;BME280;20097;50.832;19.100;2023-05-08T23:23:40;99413.47;;;5.40;100.00
33781;BME280;20097;50.832;19.100;2023-05-08T23:28:46;99412.91;;;5.36;100.00
33781;BME280;20097;50.832;19.100;2023-05-08T23:33:50;99419.72;;;5.37;100.00
33781;BME280;20097;50.832;19.100;2023-05-08T23:38:54;99416.78;;;5.31;100.00
33781;BME280;20097;50.832;19.100;2023-05-08T23:44:00;99413.69;;;5.26;100.00
33781;BME280;20097;50.832;19.100;2023-05-08T23:49:04;99413.69;;;5.26;100.00
33781;BME280;20097;50.832;19.100;2023-05-08T23:54:08;99405.06;;;5.14;100.00
33781;BME280;20097;50.832;19.100;2023-05-08T23:59:13;99407.66;;;5.14;100.00
